Time;durP1;ratioP1;P1;durP2;ratioP2;P2;SDS_P1;SDS_P2;PMS_P1;PMS_P2;Temp;Humidity;BMP_temperature;BMP_pressure;BME280_temperature;BME280_humidity;BME280_pressure;Samples;Min_cycle;Max_cycle;Signal;HPM_P1;HPM_P2
2021/08/25 00:02:05;;;;;;;2.22;1.10;;;;;;;19.49;67.80;101820.78;5091905;28;20032;-92
2021/08/25 00:04:31;;;;;;;1.40;0.80;;;;;;;19.55;67.46;101835.41;5091941;28;20024;-92
2021/08/25 00:06:56;;;;;;;2.28;1.30;;;;;;;19.34;68.32;101828.22;5091859;28;20050;-91
2021/08/25 00:09:21;;;;;;;6.07;1.10;;;;;;;19.18;69.35;101828.66;5091893;28;20493;-91
2021/08/25 00:11:47;;;;;;;1.70;1.23;;;;;;;19.20;69.35;101828.53;5091728;28;20031;-91
2021/08/25 00:14:13;;;;;;;3.92;1.27;;;;;;;19.25;69.24;101831.63;5091555;28;20028;-92
2021/08/25 00:16:38;;;;;;;4.53;1.13;;;;;;;19.53;67.75;101826.69;5091669;28;20026;-92
2021/08/25 00:19:04;;;;;;;3.22;1.10;;;;;;;19.31;68.81;101822.31;5091857;28;20368;-92
2021/08/25 00:21:29;;;;;;;4.78;1.52;;;;;;;19.15;69.42;101820.91;5091899;28;20482;-92
2021/08/25 00:23:54;;;;;;;1.42;1.10;;;;;;;18.98;69.90;101824.94;5091964;28;20028;-91
2021/08/25 00:26:20;;;;;;;2.38;1.38;;;;;;;19.08;70.09;101827.72;5091395;28;20035;-92
2021/08/25 00:28:45;;;;;;;2.75;1.48;;;;;;;19.16;69.63;101817.28;5089967;28;20039;-91
2021/08/25 00:31:13;;;;;;;2.80;1.40;;;;;;;19.13;69.56;101816.69;5091480;28;20024;-92
2021/08/25 00:33:39;;;;;;;3.92;1.30;;;;;;;19.25;69.11;101810.34;5091551;28;20406;-91
2021/08/25 00:36:04;;;;;;;5.07;1.42;;;;;;;19.14;69.33;101813.06;5091388;28;20024;-91
2021/08/25 00:38:29;;;;;;;6.50;1.45;;;;;;;19.14;69.42;101813.06;5091445;28;20024;-92
2021/08/25 00:40:55;;;;;;;5.35;1.20;;;;;;;19.13;69.54;101806.88;5094655;28;20039;-93
2021/08/25 00:43:20;;;;;;;3.70;1.17;;;;;;;18.98;69.79;101801.00;5095117;28;20184;-91
2021/08/25 00:45:45;;;;;;;1.70;1.38;;;;;;;19.01;69.97;101800.72;5095251;28;20024;-92
2021/08/25 00:48:15;;;;;;;3.35;1.42;;;;;;;18.95;70.38;101801.22;5095228;28;20045;-91
2021/08/25 00:50:41;;;;;;;4.57;1.40;;;;;;;19.01;69.93;101795.41;5095166;28;20024;-91
2021/08/25 00:53:07;;;;;;;3.20;1.65;;;;;;;18.80;70.50;101797.19;5094851;28;20032;-92
2021/08/25 00:55:42;;;;;;;2.40;1.52;;;;;;;18.91;70.36;101789.16;5094925;28;20028;-92
2021/08/25 00:58:09;;;;;;;1.98;1.15;;;;;;;18.76;71.32;101787.69;5093593;28;20547;-92
2021/08/25 01:00:44;;;;;;;2.60;1.50;;;;;;;18.85;71.22;101791.47;5094973;28;20032;-91
2021/08/25 01:03:18;;;;;;;2.17;1.55;;;;;;;18.76;72.10;101777.91;5094625;28;20028;-91
2021/08/25 01:05:44;;;;;;;2.90;1.45;;;;;;;18.79;71.26;101776.81;5094466;28;20024;-91
2021/08/25 01:08:14;;;;;;;2.70;1.48;;;;;;;18.75;71.62;101778.88;5093487;28;20024;-92
2021/08/25 01:10:40;;;;;;;4.93;2.00;;;;;;;18.70;71.99;101780.22;5094781;28;20027;-92
2021/08/25 01:13:08;;;;;;;2.55;1.30;;;;;;;18.75;72.24;101780.69;5094760;28;20036;-92
2021/08/25 01:15:36;;;;;;;2.13;1.48;;;;;;;18.74;72.20;101776.31;5094704;28;20095;-91
2021/08/25 01:18:03;;;;;;;3.00;1.45;;;;;;;18.81;71.92;101778.41;5094584;28;20032;-91
2021/08/25 01:20:30;;;;;;;3.72;1.77;;;;;;;18.82;71.82;101774.78;5094483;28;20028;-92
2021/08/25 01:22:57;;;;;;;1.65;1.17;;;;;;;18.78;71.60;101783.13;5094388;28;20055;-91
2021/08/25 01:25:25;;;;;;;3.60;1.60;;;;;;;18.79;71.72;101774.16;5094572;28;20111;-92
2021/08/25 01:28:01;;;;;;;2.03;1.20;;;;;;;18.85;71.58;101776.34;5094410;28;20381;-92
2021/08/25 01:30:31;;;;;;;2.47;1.60;;;;;;;18.83;71.21;101783.59;5094121;28;20024;-92
2021/08/25 01:32:59;;;;;;;2.00;1.25;;;;;;;18.91;71.24;101773.19;5094146;28;20405;-92
2021/08/25 01:35:36;;;;;;;1.17;1.08;;;;;;;18.99;70.63;101776.06;5094272;28;20099;-92
2021/08/25 01:38:02;;;;;;;2.80;1.20;;;;;;;18.99;70.59;101769.88;5094039;28;20093;-91
2021/08/25 01:40:28;;;;;;;2.00;1.05;;;;;;;19.01;70.48;101771.44;5094309;28;20070;-91
2021/08/25 01:42:53;;;;;;;1.20;0.80;;;;;;;18.97;70.42;101761.19;5094173;28;20051;-91
2021/08/25 01:45:19;;;;;;;2.92;1.25;;;;;;;19.02;70.44;101762.50;5094095;28;20035;-92
2021/08/25 01:47:44;;;;;;;1.10;0.98;;;;;;;19.03;70.24;101758.84;5093813;28;20490;-91
2021/08/25 01:50:11;;;;;;;3.22;1.10;;;;;;;19.03;69.74;101758.84;5093894;28;20030;-92
2021/08/25 01:52:36;;;;;;;4.97;1.40;;;;;;;19.02;69.83;101751.84;5093908;28;20038;-91
2021/08/25 01:55:02;;;;;;;3.92;1.10;;;;;;;19.06;69.74;101754.28;5093971;28;20024;-91
2021/08/25 01:57:27;;;;;;;1.85;0.80;;;;;;;19.08;69.72;101752.34;5093787;28;20439;-92
2021/08/25 01:59:53;;;;;;;3.50;1.00;;;;;;;19.26;68.34;101753.47;5093727;28;20422;-92
2021/08/25 02:02:18;;;;;;;4.03;0.80;;;;;;;19.38;67.01;101746.25;5093828;28;20522;-91
2021/08/25 02:04:43;;;;;;;1.88;0.95;;;;;;;19.47;66.06;101741.97;5093685;28;20489;-92
2021/08/25 02:07:09;;;;;;;1.25;0.88;;;;;;;19.47;65.97;101737.50;5093389;28;20031;-92
2021/08/25 02:09:34;;;;;;;0.65;0.43;;;;;;;19.53;66.05;101731.66;5093495;28;20046;-91
2021/08/25 02:11:59;;;;;;;1.08;0.73;;;;;;;19.54;65.97;101727.16;5093691;28;20058;-93
2021/08/25 02:14:25;;;;;;;1.50;0.80;;;;;;;19.51;65.74;101727.41;5093445;28;20024;-92
2021/08/25 02:16:50;;;;;;;1.15;0.45;;;;;;;19.40;65.55;101721.19;5092159;28;20389;-92
2021/08/25 02:19:16;;;;;;;0.88;0.52;;;;;;;19.44;64.54;101720.94;5093531;28;20028;-92
2021/08/25 02:21:41;;;;;;;1.00;0.63;;;;;;;19.52;63.46;101716.63;5093015;28;20039;-91
2021/08/25 02:24:08;;;;;;;1.88;0.60;;;;;;;19.54;63.45;101711.19;5093375;28;20030;-92
2021/08/25 02:26:33;;;;;;;1.52;0.65;;;;;;;19.58;63.11;101712.59;5093077;28;20024;-91
2021/08/25 02:28:58;;;;;;;1.60;0.80;;;;;;;19.53;63.15;101705.00;5093211;28;20020;-92
2021/08/25 02:31:24;;;;;;;1.80;0.60;;;;;;;19.57;62.93;101708.25;5093282;28;20031;-91
2021/08/25 02:33:49;;;;;;;1.52;0.70;;;;;;;19.66;62.97;101701.28;5092686;28;20448;-92
2021/08/25 02:36:17;;;;;;;1.45;0.73;;;;;;;19.67;62.85;101706.50;5092864;28;20028;-92
2021/08/25 02:38:42;;;;;;;2.58;0.65;;;;;;;19.64;63.19;101706.75;5093475;28;20450;-92
2021/08/25 02:41:11;;;;;;;3.35;1.58;;;;;;;19.68;63.21;101708.16;5093030;28;20093;-92
2021/08/25 02:43:37;;;;;;;1.42;0.73;;;;;;;19.57;63.59;101701.09;5092917;28;20103;-92
2021/08/25 02:46:03;;;;;;;0.60;0.45;;;;;;;19.43;64.39;101706.75;5092797;28;20466;-92
2021/08/25 02:48:29;;;;;;;1.30;0.70;;;;;;;19.32;64.42;101697.03;5092982;28;20501;-92
2021/08/25 02:50:54;;;;;;;1.02;0.80;;;;;;;19.14;65.01;101694.09;5092677;28;20047;-92
2021/08/25 02:53:20;;;;;;;1.98;0.52;;;;;;;19.11;65.39;101697.00;5092729;28;20119;-93
2021/08/25 02:55:45;;;;;;;2.17;0.93;;;;;;;19.06;65.72;101701.03;5092893;28;20032;-93
2021/08/25 02:58:11;;;;;;;1.48;0.70;;;;;;;18.96;65.82;101688.50;5092717;28;20030;-92
2021/08/25 03:00:36;;;;;;;1.08;0.80;;;;;;;18.83;66.35;101682.50;5092724;28;20021;-93
2021/08/25 03:03:01;;;;;;;1.35;0.60;;;;;;;18.85;66.26;101683.22;5092145;28;20103;-93
2021/08/25 03:05:27;;;;;;;1.02;0.77;;;;;;;18.77;66.49;101686.47;5092701;28;20153;-92
2021/08/25 03:07:52;;;;;;;2.75;0.65;;;;;;;18.70;66.53;101684.44;5092766;28;20051;-92
2021/08/25 03:10:18;;;;;;;2.03;0.80;;;;;;;18.68;66.63;101679.25;5092626;28;20602;-92
2021/08/25 03:12:43;;;;;;;0.70;0.60;;;;;;;18.66;66.63;101677.69;5092376;28;20030;-91
2021/08/25 03:15:09;;;;;;;3.72;0.68;;;;;;;18.67;66.24;101680.22;5092369;28;20382;-92
2021/08/25 03:17:35;;;;;;;2.80;1.10;;;;;;;18.59;66.56;101670.19;5091374;28;20035;-92
2021/08/25 03:20:01;;;;;;;3.92;0.77;;;;;;;18.62;66.69;101680.59;5092138;28;20023;-91
2021/08/25 03:22:28;;;;;;;1.35;0.65;;;;;;;18.57;66.83;101669.47;5092328;28;20021;-92
2021/08/25 03:24:54;;;;;;;5.32;0.90;;;;;;;18.46;67.24;101664.19;5091124;28;20081;-92
2021/08/25 03:27:19;;;;;;;2.92;0.88;;;;;;;18.43;67.84;101683.06;5092340;28;20469;-92
2021/08/25 03:29:44;;;;;;;1.77;0.80;;;;;;;18.30;68.54;101672.56;5092598;28;20442;-93
2021/08/25 03:32:10;;;;;;;1.95;0.85;;;;;;;18.28;68.51;101671.00;5092353;28;20359;-92
2021/08/25 03:34:35;;;;;;;0.85;0.70;;;;;;;18.24;68.43;101667.75;5091883;28;20498;-92
2021/08/25 03:37:01;;;;;;;1.75;1.08;;;;;;;18.24;68.35;101673.06;5090448;28;20028;-93
2021/08/25 03:39:26;;;;;;;1.48;1.38;;;;;;;18.23;68.42;101666.91;5092346;28;20107;-92
2021/08/25 03:41:51;;;;;;;1.52;0.80;;;;;;;18.23;68.41;101672.22;5090657;28;20054;-93
2021/08/25 03:44:17;;;;;;;1.85;0.70;;;;;;;18.13;68.85;101665.13;5091864;28;20377;-92
2021/08/25 03:46:42;;;;;;;0.70;0.70;;;;;;;18.05;69.17;101663.06;5091920;28;20519;-92
2021/08/25 03:49:07;;;;;;;0.95;0.70;;;;;;;18.07;68.80;101663.78;5091980;28;20416;-91
2021/08/25 03:51:33;;;;;;;4.55;1.30;;;;;;;18.06;69.01;101662.09;5091715;28;20386;-92
2021/08/25 03:53:58;;;;;;;1.98;0.70;;;;;;;18.01;69.26;101658.97;5091749;28;20032;-91
2021/08/25 03:56:24;;;;;;;2.25;1.02;;;;;;;18.02;69.03;101650.84;5092031;28;20093;-91
2021/08/25 03:58:49;;;;;;;0.95;0.68;;;;;;;18.01;68.96;101649.19;5090816;28;20488;-92
2021/08/25 04:01:14;;;;;;;0.95;0.52;;;;;;;18.02;69.26;101648.19;5091814;28;20020;-92
2021/08/25 04:03:40;;;;;;;2.17;0.85;;;;;;;17.99;68.81;101647.59;5091843;28;20047;-92
2021/08/25 04:06:05;;;;;;;0.82;0.80;;;;;;;17.96;68.90;101647.84;5091429;28;20485;-92
2021/08/25 04:08:31;;;;;;;1.98;1.02;;;;;;;17.97;68.80;101641.56;5091657;28;20077;-92
2021/08/25 04:10:56;;;;;;;2.63;0.82;;;;;;;17.91;68.90;101644.69;5091701;28;20098;-92
2021/08/25 04:13:22;;;;;;;1.33;0.73;;;;;;;17.87;68.85;101649.44;5091639;28;20561;-91
2021/08/25 04:15:47;;;;;;;1.27;0.80;;;;;;;17.86;68.92;101638.94;5093562;28;20541;-91
2021/08/25 04:18:12;;;;;;;1.33;0.68;;;;;;;17.77;68.74;101643.97;5095770;28;20020;-92
2021/08/25 04:20:38;;;;;;;0.90;0.50;;;;;;;17.81;68.84;101640.09;5095557;28;20024;-91
2021/08/25 04:23:03;;;;;;;1.80;0.63;;;;;;;17.82;68.60;101636.47;5095693;28;20111;-91
2021/08/25 04:25:28;;;;;;;1.38;0.50;;;;;;;17.82;68.46;101647.09;5095679;28;20069;-91
2021/08/25 04:27:54;;;;;;;1.50;0.80;;;;;;;17.73;68.67;101647.84;5095756;28;20028;-91
2021/08/25 04:30:19;;;;;;;1.25;0.70;;;;;;;17.73;68.82;101645.19;5095522;28;20600;-92
2021/08/25 04:32:45;;;;;;;1.15;0.90;;;;;;;17.70;68.66;101648.06;5095259;28;20038;-92
2021/08/25 04:35:10;;;;;;;1.83;0.80;;;;;;;17.73;68.75;101639.88;5095169;28;20383;-92
2021/08/25 04:37:36;;;;;;;0.93;0.63;;;;;;;17.66;68.87;101646.63;5095297;28;20466;-92
2021/08/25 04:40:01;;;;;;;2.13;0.98;;;;;;;17.73;69.01;101637.22;5095587;28;20078;-92
2021/08/25 04:42:26;;;;;;;1.38;0.98;;;;;;;17.40;70.76;101646.84;5095426;28;20025;-92
2021/08/25 04:44:52;;;;;;;1.45;0.60;;;;;;;17.70;69.22;101648.06;5095132;28;20530;-92
2021/08/25 04:47:17;;;;;;;0.98;0.75;;;;;;;17.70;68.76;101648.06;5095019;28;20056;-91
2021/08/25 04:49:42;;;;;;;1.25;0.85;;;;;;;17.62;68.90;101635.38;5094633;28;20537;-92
2021/08/25 04:52:08;;;;;;;3.42;0.70;;;;;;;17.53;69.37;101645.88;5095013;28;20437;-92
2021/08/25 04:54:33;;;;;;;1.00;0.80;;;;;;;17.55;68.95;101639.47;5095210;28;20445;-92
2021/08/25 04:56:58;;;;;;;1.63;0.90;;;;;;;17.52;69.05;101638.88;5094719;28;20057;-92
2021/08/25 04:59:24;;;;;;;0.98;0.82;;;;;;;17.34;69.61;101630.53;5095032;28;20051;-92
2021/08/25 05:01:49;;;;;;;2.35;0.82;;;;;;;17.19;71.09;101629.91;5095055;28;20035;-92
2021/08/25 05:04:14;;;;;;;0.95;0.85;;;;;;;17.36;69.88;101642.72;5095071;28;20028;-92
2021/08/25 05:06:40;;;;;;;1.38;1.00;;;;;;;17.39;69.84;101645.13;5094914;28;20378;-92
2021/08/25 05:09:05;;;;;;;1.90;0.90;;;;;;;17.35;70.31;101643.69;5095033;28;20379;-92
2021/08/25 05:11:31;;;;;;;2.35;1.15;;;;;;;17.34;70.03;101636.69;5094527;28;20073;-92
2021/08/25 05:13:56;;;;;;;1.17;0.82;;;;;;;17.31;70.09;101636.06;5094152;28;20500;-92
2021/08/25 05:16:22;;;;;;;1.40;0.88;;;;;;;17.30;69.96;101642.34;5093139;28;20028;-90
2021/08/25 05:18:47;;;;;;;1.40;0.88;;;;;;;17.27;70.65;101650.56;5094067;28;20086;-91
2021/08/25 05:21:12;;;;;;;1.05;0.82;;;;;;;17.25;70.56;101646.19;5097192;28;20089;-91
2021/08/25 05:23:38;;;;;;;1.48;0.98;;;;;;;17.24;70.33;101647.16;5093874;28;20024;-91
2021/08/25 05:26:05;;;;;;;1.10;0.90;;;;;;;17.29;70.09;101646.81;5093549;28;20047;-92
2021/08/25 05:28:31;;;;;;;1.33;0.82;;;;;;;17.16;70.59;101649.56;5093893;28;20081;-91
2021/08/25 05:30:56;;;;;;;1.33;0.90;;;;;;;17.16;70.72;101648.69;5094375;28;20027;-90
2021/08/25 05:33:22;;;;;;;1.70;0.93;;;;;;;17.14;70.83;101648.84;5092804;28;20031;-91
2021/08/25 05:35:47;;;;;;;3.17;1.83;;;;;;;17.20;71.02;101660.78;5093891;28;20101;-91
2021/08/25 05:38:13;;;;;;;0.98;0.73;;;;;;;17.16;71.25;101652.22;5092910;28;20024;-94
2021/08/25 05:40:38;;;;;;;1.52;1.08;;;;;;;17.28;71.14;101654.88;5093167;28;20024;-95
2021/08/25 05:43:04;;;;;;;1.40;0.63;;;;;;;17.29;71.25;101653.94;5092661;28;20108;-94
2021/08/25 05:45:29;;;;;;;1.05;0.95;;;;;;;17.29;71.35;101654.78;5092876;28;20311;-96
2021/08/25 05:47:57;;;;;;;1.50;0.75;;;;;;;17.36;71.47;101656.00;5093012;28;20028;-95
2021/08/25 05:50:24;;;;;;;2.13;0.98;;;;;;;17.47;71.26;101656.97;5094513;28;20055;-94
2021/08/25 05:52:51;;;;;;;1.23;1.13;;;;;;;17.47;71.52;101662.28;5093968;28;20074;-91
2021/08/25 05:55:16;;;;;;;1.35;0.98;;;;;;;17.48;71.49;101653.38;5093846;28;20034;-94
2021/08/25 05:57:45;;;;;;;1.20;1.00;;;;;;;17.54;71.23;101659.03;5093524;28;20091;-96
2021/08/25 06:00:16;;;;;;;1.38;0.90;;;;;;;17.59;71.77;101658.69;5091976;28;20145;-96
2021/08/25 06:02:42;;;;;;;1.77;0.97;;;;;;;17.69;71.40;101661.47;5092193;28;20024;-96
2021/08/25 06:05:09;;;;;;;2.15;0.73;;;;;;;17.81;71.66;101661.34;5093235;28;20043;-95
2021/08/25 06:07:34;;;;;;;1.77;0.90;;;;;;;17.92;71.83;101662.34;5093329;28;20024;-95
2021/08/25 06:10:01;;;;;;;5.65;1.02;;;;;;;17.93;71.59;101659.59;5093382;28;20035;-96
2021/08/25 06:12:26;;;;;;;2.08;1.13;;;;;;;18.00;70.96;101665.25;5092947;28;20028;-95
2021/08/25 06:14:51;;;;;;;0.98;0.90;;;;;;;17.99;70.71;101655.56;5093387;28;20055;-96
2021/08/25 06:17:17;;;;;;;1.67;0.82;;;;;;;18.03;71.10;101665.00;5093122;28;20020;-96
2021/08/25 06:19:43;;;;;;;1.65;1.10;;;;;;;18.10;71.17;101666.19;5092944;28;20027;-94
2021/08/25 06:22:08;;;;;;;1.58;1.10;;;;;;;18.28;70.60;101668.34;5093163;28;20073;-95
2021/08/25 06:24:34;;;;;;;1.55;1.33;;;;;;;18.34;70.48;101663.38;5092964;28;20024;-95
2021/08/25 06:26:59;;;;;;;5.28;1.50;;;;;;;18.42;70.14;101660.09;5092456;28;20422;-95
2021/08/25 06:29:24;;;;;;;1.30;0.90;;;;;;;18.48;70.45;101659.59;5092222;28;20035;-95
2021/08/25 06:31:50;;;;;;;2.83;1.10;;;;;;;18.57;70.24;101661.50;5092397;28;20032;-94
2021/08/25 06:34:15;;;;;;;2.90;1.00;;;;;;;18.61;70.29;101665.59;5092369;28;20028;-95
2021/08/25 06:36:41;;;;;;;2.65;1.00;;;;;;;18.84;69.83;101665.56;5092326;28;20111;-96
2021/08/25 06:39:07;;;;;;;1.73;0.98;;;;;;;18.91;69.25;101663.22;5093431;28;20355;-94
2021/08/25 06:41:32;;;;;;;3.20;1.80;;;;;;;19.04;69.27;101666.56;5092516;28;20032;-93
2021/08/25 06:43:58;;;;;;;1.65;1.15;;;;;;;19.00;70.15;101665.97;5093465;28;20039;-95
2021/08/25 06:46:23;;;;;;;4.13;1.40;;;;;;;18.81;70.36;101660.47;5097567;28;20480;-96
2021/08/25 06:48:48;;;;;;;1.65;1.10;;;;;;;18.94;70.42;101655.84;5093787;28;20140;-95
2021/08/25 06:51:14;;;;;;;3.42;1.48;;;;;;;18.98;70.15;101656.44;5093663;28;20500;-95
2021/08/25 06:53:39;;;;;;;4.88;1.42;;;;;;;19.02;70.55;101666.69;5093741;28;20028;-96
2021/08/25 06:56:04;;;;;;;1.85;1.38;;;;;;;18.99;70.92;101666.91;5092537;28;20073;-95
2021/08/25 06:58:30;;;;;;;4.20;1.70;;;;;;;19.07;71.10;101666.28;5091975;28;20501;-94
2021/08/25 07:00:56;;;;;;;3.28;1.38;;;;;;;19.15;72.12;101652.34;5091758;28;20351;-95
2021/08/25 07:03:22;;;;;;;2.50;1.73;;;;;;;19.22;71.45;101659.66;5092421;28;20032;-96
2021/08/25 07:05:47;;;;;;;3.35;1.10;;;;;;;19.32;71.41;101665.06;5082427;28;20027;-95
2021/08/25 07:08:13;;;;;;;1.70;1.60;;;;;;;19.31;71.56;101658.06;5092555;28;20492;-96
2021/08/25 07:10:39;;;;;;;4.43;1.88;;;;;;;19.41;72.04;101661.63;5090750;28;20052;-95
2021/08/25 07:13:04;;;;;;;3.25;1.58;;;;;;;19.51;71.03;101663.47;5090647;28;20040;-94
2021/08/25 07:15:30;;;;;;;4.15;1.65;;;;;;;19.59;70.77;101661.03;5090819;28;20499;-94
2021/08/25 07:17:55;;;;;;;1.63;1.30;;;;;;;19.81;71.16;101654.69;5090243;28;20497;-95
2021/08/25 07:20:20;;;;;;;2.60;2.22;;;;;;;20.00;70.46;101653.91;5091682;28;20028;-94
2021/08/25 07:22:46;;;;;;;2.83;1.77;;;;;;;20.07;70.89;101646.22;5090643;28;20077;-95
2021/08/25 07:25:12;;;;;;;3.80;1.80;;;;;;;20.08;71.06;101656.72;5090253;28;20031;-95
2021/08/25 07:27:39;;;;;;;2.58;1.30;;;;;;;20.01;70.51;101655.59;5090857;28;20024;-96
2021/08/25 07:30:06;;;;;;;4.70;1.70;;;;;;;19.97;69.93;101654.19;5091812;28;20024;-95
2021/08/25 07:32:31;;;;;;;1.80;1.27;;;;;;;19.99;70.53;101658.41;5096461;28;20031;-95
2021/08/25 07:34:57;;;;;;;1.70;1.40;;;;;;;20.02;71.00;101657.28;5089936;28;20024;-95
2021/08/25 07:37:22;;;;;;;2.38;1.50;;;;;;;20.15;70.31;101660.56;5091011;28;20543;-95
2021/08/25 07:39:47;;;;;;;6.95;2.08;;;;;;;20.15;70.94;101655.22;5091412;28;20115;-95
2021/08/25 07:42:13;;;;;;;4.38;1.90;;;;;;;20.04;68.84;101660.66;5093020;28;20028;-95
2021/08/25 07:44:38;;;;;;;1.83;1.60;;;;;;;20.30;67.65;101660.16;5091091;28;20028;-94
2021/08/25 07:47:04;;;;;;;4.95;1.50;;;;;;;20.45;65.92;101663.28;5102153;28;20024;-96
2021/08/25 07:49:30;;;;;;;2.58;1.50;;;;;;;20.53;67.57;101660.75;5102685;28;20057;-96
2021/08/25 07:51:56;;;;;;;3.05;1.98;;;;;;;20.71;67.58;101656.44;5166967;22;20049;-95
2021/08/25 07:54:21;;;;;;;2.85;1.70;;;;;;;20.94;65.79;101665.03;5016095;28;20033;-95
2021/08/25 07:56:47;;;;;;;2.63;1.50;;;;;;;21.17;65.07;101648.72;4997938;28;20468;-95
2021/08/25 07:59:12;;;;;;;3.72;1.75;;;;;;;21.31;64.38;101653.59;5003638;28;20416;-94
2021/08/25 08:01:38;;;;;;;2.35;1.13;;;;;;;21.50;63.93;101651.88;5002934;28;20452;-93
2021/08/25 08:04:03;;;;;;;1.75;1.27;;;;;;;21.59;64.02;101654.53;5000520;28;20028;-95
2021/08/25 08:06:29;;;;;;;5.95;1.42;;;;;;;21.42;63.04;101641.03;4996878;28;20037;-94
2021/08/25 08:08:54;;;;;;;4.03;1.85;;;;;;;21.57;63.64;101650.31;5001663;28;20465;-96
2021/08/25 08:11:19;;;;;;;2.60;1.48;;;;;;;21.59;62.00;101643.00;4999234;28;20054;-96
2021/08/25 08:13:45;;;;;;;2.50;1.73;;;;;;;21.63;62.09;101647.06;4995384;28;20049;-95
2021/08/25 08:16:16;;;;;;;3.00;1.55;;;;;;;21.67;61.92;101639.59;4996067;28;20409;-94
2021/08/25 08:18:54;;;;;;;3.72;1.33;;;;;;;21.68;61.28;101647.47;5002491;28;20022;-94
2021/08/25 08:21:19;;;;;;;2.83;1.52;;;;;;;21.78;61.35;101648.28;4992394;28;20022;-95
2021/08/25 08:23:45;;;;;;;2.33;1.48;;;;;;;21.98;60.92;101650.84;5006396;28;20033;-94
2021/08/25 08:26:10;;;;;;;3.38;1.33;;;;;;;21.99;60.06;101649.84;5003473;28;20022;-94
2021/08/25 08:28:36;;;;;;;2.53;1.40;;;;;;;22.20;59.09;101651.44;5006431;28;20033;-95
2021/08/25 08:31:02;;;;;;;1.95;1.42;;;;;;;22.18;58.82;101647.06;4998574;28;20068;-94
2021/08/25 08:33:27;;;;;;;3.20;1.63;;;;;;;22.15;58.79;101649.19;5003255;28;20030;-95
2021/08/25 08:35:52;;;;;;;4.82;1.83;;;;;;;22.71;57.10;101641.91;5002251;28;20030;-96
2021/08/25 08:38:18;;;;;;;4.15;1.52;;;;;;;23.45;55.76;101648.69;5019005;28;20058;-96
2021/08/25 08:40:43;;;;;;;2.00;1.35;;;;;;;23.61;55.13;101645.28;5024924;28;20029;-96
2021/08/25 08:43:10;;;;;;;2.08;1.27;;;;;;;23.86;54.09;101645.44;5022405;28;20030;-96
2021/08/25 08:45:44;;;;;;;2.28;1.30;;;;;;;24.06;53.69;101648.69;5016569;28;20076;-95
2021/08/25 08:48:14;;;;;;;2.88;1.30;;;;;;;24.04;52.45;101648.84;5021233;28;20030;-96
2021/08/25 08:50:46;;;;;;;2.45;1.30;;;;;;;23.87;52.80;101649.78;5027829;28;20048;-95
2021/08/25 08:53:12;;;;;;;1.42;1.00;;;;;;;23.60;53.04;101648.97;5015564;28;20034;-94
2021/08/25 08:55:38;;;;;;;2.22;1.55;;;;;;;23.69;52.70;101653.34;5014149;28;20034;-95
2021/08/25 08:58:05;;;;;;;4.15;1.05;;;;;;;23.64;53.61;101644.97;5026248;28;20384;-96
2021/08/25 09:00:31;;;;;;;2.05;1.30;;;;;;;23.54;53.44;101644.25;5009541;28;20033;-94
2021/08/25 09:02:56;;;;;;;5.40;2.63;;;;;;;23.52;54.00;101646.25;5022314;28;20105;-95
2021/08/25 09:05:23;;;;;;;3.13;1.70;;;;;;;23.92;52.54;101647.47;5012887;28;20035;-96
2021/08/25 09:07:51;;;;;;;1.60;1.20;;;;;;;23.89;51.77;101656.66;5040727;28;20026;-92
2021/08/25 09:10:21;;;;;;;2.85;1.58;;;;;;;24.61;52.33;101644.66;5033149;28;20032;-91
2021/08/25 09:12:51;;;;;;;2.83;1.55;;;;;;;24.99;49.82;101659.25;4996155;28;20029;-90
2021/08/25 09:15:25;;;;;;;1.95;1.33;;;;;;;25.22;48.61;101663.97;5004196;28;20026;-91
2021/08/25 09:18:14;;;;;;;2.38;1.83;;;;;;;25.26;49.05;101658.09;4985777;28;20027;-91
2021/08/25 09:20:46;;;;;;;2.42;1.67;;;;;;;24.90;49.57;101652.19;4996003;28;20029;-92
2021/08/25 09:23:26;;;;;;;3.20;2.10;;;;;;;25.00;50.03;101654.69;5017464;28;20982;-91
2021/08/25 09:25:54;;;;;;;2.22;1.70;;;;;;;25.04;49.61;101656.03;5005192;28;20108;-92
2021/08/25 09:28:28;;;;;;;11.50;2.45;;;;;;;24.74;49.33;101655.72;5010926;28;20026;-93
2021/08/25 09:30:56;;;;;;;1.95;1.40;;;;;;;24.63;50.89;101653.38;4982470;28;20117;-92
2021/08/25 09:33:26;;;;;;;3.88;1.60;;;;;;;24.69;50.39;101658.06;5007286;28;20033;-92
2021/08/25 09:35:55;;;;;;;2.28;1.40;;;;;;;24.71;49.57;101650.69;5006968;28;20065;-92
2021/08/25 09:38:22;;;;;;;3.05;1.60;;;;;;;25.11;49.42;101657.06;4994851;28;20018;-91
2021/08/25 09:40:51;;;;;;;1.80;1.38;;;;;;;25.21;49.06;101655.03;5021531;28;20398;-92
2021/08/25 09:43:32;;;;;;;2.03;1.30;;;;;;;25.09;48.35;101656.38;4994963;28;20022;-94
2021/08/25 09:46:21;;;;;;;2.78;1.35;;;;;;;25.57;47.13;101661.88;5000224;28;20023;-93
2021/08/25 09:48:52;;;;;;;2.95;1.48;;;;;;;25.85;47.20;101654.19;4994620;28;20511;-93
2021/08/25 09:51:20;;;;;;;2.10;1.38;;;;;;;25.61;47.77;101658.69;5001749;28;20030;-92
2021/08/25 09:54:02;;;;;;;2.17;1.50;;;;;;;25.51;47.59;101645.44;5010195;28;20045;-92
2021/08/25 09:56:33;;;;;;;3.28;1.40;;;;;;;25.28;47.65;101658.75;5014094;28;20030;-93
2021/08/25 09:59:01;;;;;;;1.98;1.40;;;;;;;25.44;46.97;101657.03;4995041;28;20018;-94
2021/08/25 10:01:27;;;;;;;2.60;1.30;;;;;;;25.88;45.45;101653.84;4984366;28;20366;-91
2021/08/25 10:03:53;;;;;;;2.78;1.92;;;;;;;25.67;46.26;101647.22;5013998;28;20033;-93
2021/08/25 10:06:20;;;;;;;4.97;1.45;;;;;;;25.82;45.67;101644.63;5012599;28;20131;-92
2021/08/25 10:08:47;;;;;;;3.97;1.52;;;;;;;26.49;44.91;101643.28;4999138;28;20026;-92
2021/08/25 10:11:14;;;;;;;2.63;1.20;;;;;;;27.26;43.03;101637.78;5003700;28;20081;-94
2021/08/25 10:13:40;;;;;;;1.63;1.20;;;;;;;28.08;42.23;101636.81;5013753;28;20034;-93
2021/08/25 10:16:11;;;;;;;1.23;0.80;;;;;;;28.11;41.02;101641.00;4997248;28;20033;-94
2021/08/25 10:18:42;;;;;;;1.63;1.13;;;;;;;28.00;40.09;101636.09;4995412;28;20030;-93
2021/08/25 10:21:40;;;;;;;2.03;1.38;;;;;;;27.80;40.60;101630.41;5011617;28;20088;-94
2021/08/25 10:24:06;;;;;;;1.40;1.20;;;;;;;27.58;41.83;101630.34;5013525;28;20029;-93
2021/08/25 10:26:52;;;;;;;1.20;0.88;;;;;;;27.86;40.79;101632.34;5028600;28;20026;-93
2021/08/25 10:29:17;;;;;;;1.50;1.00;;;;;;;27.76;40.91;101616.47;5022600;28;20023;-93
2021/08/25 10:31:48;;;;;;;4.15;0.95;;;;;;;27.76;41.25;101621.03;4994113;28;20023;-94
2021/08/25 10:34:17;;;;;;;2.28;0.98;;;;;;;27.82;40.38;101614.88;4993840;28;20110;-95
2021/08/25 10:36:43;;;;;;;2.08;1.05;;;;;;;27.82;40.17;101609.47;4979622;28;20110;-94
2021/08/25 10:39:31;;;;;;;2.25;1.30;;;;;;;27.75;42.45;101612.09;4974341;28;20094;-94
2021/08/25 10:41:57;;;;;;;2.70;1.27;;;;;;;28.17;43.12;101602.44;4972967;28;20516;-94
2021/08/25 10:44:38;;;;;;;1.55;1.08;;;;;;;29.05;40.28;101600.31;4974268;28;20015;-94
2021/08/25 10:47:12;;;;;;;1.95;1.27;;;;;;;28.98;40.21;101607.53;4974300;28;20058;-94
2021/08/25 10:49:40;;;;;;;1.33;1.10;;;;;;;28.70;40.16;101604.84;4975024;28;20069;-94
2021/08/25 10:52:27;;;;;;;1.58;0.90;;;;;;;28.31;40.03;101600.69;4990882;28;20088;-94
2021/08/25 10:54:53;;;;;;;1.30;0.90;;;;;;;28.52;40.16;101605.31;4993410;28;20080;-95
2021/08/25 10:57:21;;;;;;;1.63;1.15;;;;;;;28.80;38.69;101597.22;4992165;28;20027;-93
2021/08/25 10:59:47;;;;;;;3.58;0.88;;;;;;;28.77;39.20;101594.94;4993397;28;20034;-94
2021/08/25 11:02:13;;;;;;;1.40;0.88;;;;;;;29.54;39.19;101590.41;4993405;28;20107;-94
2021/08/25 11:04:39;;;;;;;1.33;0.65;;;;;;;30.49;36.60;101587.81;4993015;28;20603;-93
2021/08/25 11:07:12;;;;;;;1.55;0.90;;;;;;;30.52;35.04;101583.84;4977022;28;20031;-95
2021/08/25 11:09:50;;;;;;;1.02;0.88;;;;;;;30.09;35.95;101584.19;4973894;28;20502;-93
2021/08/25 11:12:23;;;;;;;1.50;0.75;;;;;;;29.99;37.77;101588.09;4975077;28;20102;-94
2021/08/25 11:14:50;;;;;;;2.03;0.98;;;;;;;29.45;36.58;101584.34;4975506;28;20038;-94
2021/08/25 11:17:24;;;;;;;1.40;0.93;;;;;;;28.91;38.61;101586.91;4972453;28;20019;-94
2021/08/25 11:19:59;;;;;;;1.45;0.68;;;;;;;28.41;38.93;101576.91;4991811;28;20115;-94
2021/08/25 11:22:34;;;;;;;2.30;1.08;;;;;;;27.77;39.61;101574.97;4991998;28;20099;-94
2021/08/25 11:25:05;;;;;;;2.35;0.88;;;;;;;28.82;39.00;101578.94;4992534;28;20034;-94